Time;durP1;ratioP1;P1;durP2;ratioP2;P2;SDS_P1;SDS_P2;PMS_P1;PMS_P2;Temp;Humidity;BMP_temperature;BMP_pressure;BME280_temperature;BME280_humidity;BME280_pressure;Samples;Min_cycle;Max_cycle;Signal;HPM_P1;HPM_P2
2022/12/02 00:00:19;;;;;;;41.13;26.70;;;3.80;99.90;;;;;;4995341;28;20189;-73
2022/12/02 00:02:45;;;;;;;38.55;26.67;;;3.90;99.90;;;;;;4996689;28;20177;-73
2022/12/02 00:05:21;;;;;;;39.30;25.52;;;3.90;99.90;;;;;;4995122;28;20220;-73
2022/12/02 00:07:50;;;;;;;39.13;27.30;;;3.90;99.90;;;;;;4978997;28;20210;-73
2022/12/02 00:10:26;;;;;;;39.13;25.65;;;3.90;99.90;;;;;;4997436;28;20174;-73
2022/12/02 00:12:52;;;;;;;40.03;26.90;;;3.90;99.90;;;;;;4996830;28;20251;-73
2022/12/02 00:15:40;;;;;;;37.97;26.45;;;3.80;99.90;;;;;;4988594;28;20685;-74
2022/12/02 00:18:07;;;;;;;42.00;24.85;;;3.80;99.90;;;;;;4998544;28;20189;-73
2022/12/02 00:20:33;;;;;;;35.53;24.50;;;3.80;99.90;;;;;;4998142;28;20232;-73
2022/12/02 00:22:58;;;;;;;36.50;24.90;;;3.90;99.90;;;;;;4991223;28;20190;-73
2022/12/02 00:25:24;;;;;;;41.25;25.63;;;3.80;99.90;;;;;;4974366;28;20221;-74
2022/12/02 00:27:50;;;;;;;34.03;25.13;;;3.80;99.90;;;;;;4975825;28;20171;-73
2022/12/02 00:30:16;;;;;;;37.03;23.35;;;3.80;99.90;;;;;;4986729;28;20190;-73
2022/12/02 00:32:42;;;;;;;37.28;24.70;;;3.80;99.90;;;;;;4982391;28;20256;-73
2022/12/02 00:35:07;;;;;;;33.60;24.08;;;3.90;99.90;;;;;;4995008;28;20321;-74
2022/12/02 00:37:33;;;;;;;35.72;23.27;;;3.90;99.90;;;;;;4995065;28;20839;-73
2022/12/02 00:39:58;;;;;;;36.17;23.75;;;3.90;99.90;;;;;;4984497;28;20277;-73
2022/12/02 00:42:24;;;;;;;37.58;25.25;;;4.00;99.90;;;;;;4997007;28;20205;-73
2022/12/02 00:47:33;;;;;;;35.05;25.40;;;4.00;99.90;;;;;;4993753;28;20582;-73
2022/12/02 00:49:59;;;;;;;36.95;24.67;;;4.00;99.90;;;;;;4990120;28;20174;-73
2022/12/02 00:52:25;;;;;;;37.22;25.55;;;3.80;99.90;;;;;;4994695;28;20166;-73
2022/12/02 00:54:50;;;;;;;34.75;23.00;;;3.70;99.90;;;;;;4993808;28;20190;-73
2022/12/02 00:57:16;;;;;;;37.95;24.40;;;3.80;99.90;;;;;;4993982;28;20190;-73
2022/12/02 00:59:41;;;;;;;39.10;25.05;;;3.80;99.90;;;;;;4981242;28;20197;-73
2022/12/02 01:02:07;;;;;;;32.95;22.65;;;3.80;99.90;;;;;;4975849;28;20186;-73
2022/12/02 01:04:32;;;;;;;35.97;24.73;;;3.90;99.90;;;;;;4994169;28;20208;-73
2022/12/02 01:06:58;;;;;;;31.95;23.42;;;3.90;99.90;;;;;;4994305;28;20206;-73
2022/12/02 01:09:23;;;;;;;36.55;24.15;;;3.90;99.90;;;;;;4988967;28;20622;-73
2022/12/02 01:11:49;;;;;;;32.97;22.70;;;3.90;99.90;;;;;;4974884;28;20237;-73
2022/12/02 01:14:15;;;;;;;33.47;23.27;;;3.90;99.90;;;;;;4974590;28;20199;-73
2022/12/02 01:16:40;;;;;;;37.45;25.20;;;3.90;99.90;;;;;;4973035;28;20202;-73
2022/12/02 01:19:06;;;;;;;36.05;23.40;;;3.90;99.90;;;;;;4984950;28;20268;-73
2022/12/02 01:21:31;;;;;;;37.97;23.85;;;3.90;99.90;;;;;;4994246;28;20185;-73
2022/12/02 01:23:57;;;;;;;34.38;23.27;;;3.90;99.90;;;;;;4993733;28;20182;-73
2022/12/02 01:26:22;;;;;;;32.10;22.60;;;3.90;99.90;;;;;;4988996;28;20209;-73
2022/12/02 01:28:48;;;;;;;37.35;24.15;;;3.90;99.90;;;;;;4974663;28;20526;-73
2022/12/02 01:31:14;;;;;;;33.78;22.80;;;4.00;99.90;;;;;;4974415;28;20253;-73
2022/12/02 01:33:40;;;;;;;32.80;21.80;;;4.00;99.90;;;;;;4973884;28;20630;-73
2022/12/02 01:36:06;;;;;;;32.72;22.90;;;4.00;99.90;;;;;;4984736;28;20629;-73
2022/12/02 01:38:32;;;;;;;33.17;23.75;;;3.90;99.90;;;;;;4993820;28;20178;-73
2022/12/02 01:40:58;;;;;;;36.72;23.63;;;4.00;99.90;;;;;;4992477;28;20270;-73
2022/12/02 01:43:24;;;;;;;30.98;21.48;;;4.00;99.90;;;;;;5008288;28;20197;-73
2022/12/02 01:45:50;;;;;;;36.60;22.95;;;4.00;99.90;;;;;;5011920;28;20220;-73
2022/12/02 01:48:16;;;;;;;31.25;22.73;;;4.00;99.90;;;;;;5000165;28;20204;-72
2022/12/02 01:50:41;;;;;;;30.75;21.02;;;4.00;99.90;;;;;;4977199;28;20190;-72
2022/12/02 01:53:07;;;;;;;34.75;24.00;;;4.00;99.90;;;;;;4974012;28;20166;-73
2022/12/02 01:55:33;;;;;;;34.05;22.90;;;3.80;99.90;;;;;;4973983;28;20572;-73
2022/12/02 01:57:59;;;;;;;32.33;21.90;;;3.70;99.90;;;;;;4977193;28;20820;-73
2022/12/02 02:00:26;;;;;;;37.78;23.42;;;3.80;99.90;;;;;;4993158;28;20173;-73
2022/12/02 02:02:51;;;;;;;35.92;23.98;;;3.80;99.90;;;;;;4993017;28;20176;-73
2022/12/02 02:05:21;;;;;;;31.90;22.08;;;3.80;99.90;;;;;;4992210;28;20209;-73
2022/12/02 02:07:54;;;;;;;33.03;21.48;;;3.80;99.90;;;;;;4983462;28;20245;-73
2022/12/02 02:10:22;;;;;;;32.97;22.00;;;3.90;99.90;;;;;;5010258;28;20224;-72
2022/12/02 02:12:49;;;;;;;36.03;23.60;;;3.80;99.90;;;;;;5012386;28;20193;-73
2022/12/02 02:15:16;;;;;;;35.95;23.60;;;3.90;99.90;;;;;;5003481;28;20196;-73
2022/12/02 02:17:43;;;;;;;36.55;23.50;;;3.80;99.90;;;;;;4975558;28;20201;-72
2022/12/02 02:20:15;;;;;;;33.75;22.65;;;3.80;99.90;;;;;;4973994;28;20298;-72
2022/12/02 02:22:52;;;;;;;37.70;23.38;;;3.80;99.90;;;;;;4992302;28;20181;-72
2022/12/02 02:25:18;;;;;;;32.85;22.23;;;3.80;99.90;;;;;;4979899;28;20695;-73
2022/12/02 02:27:50;;;;;;;34.78;21.83;;;3.80;99.90;;;;;;5004838;28;20264;-73
2022/12/02 02:30:15;;;;;;;35.45;22.55;;;3.80;99.90;;;;;;5012492;28;20197;-72
2022/12/02 02:32:41;;;;;;;37.55;24.27;;;3.90;99.90;;;;;;4999250;28;20236;-73
2022/12/02 02:35:07;;;;;;;35.42;22.90;;;3.80;99.90;;;;;;4973319;28;20194;-73
2022/12/02 02:37:33;;;;;;;38.25;23.98;;;3.80;99.90;;;;;;4973365;28;20618;-73
2022/12/02 02:39:59;;;;;;;38.08;22.77;;;3.80;99.90;;;;;;4971911;28;20185;-73
2022/12/02 02:42:25;;;;;;;38.88;23.42;;;3.80;99.90;;;;;;5000270;28;20197;-73
2022/12/02 02:44:51;;;;;;;37.08;23.33;;;3.80;99.90;;;;;;4974825;28;20689;-73
2022/12/02 02:47:16;;;;;;;37.33;23.45;;;3.80;99.90;;;;;;4973246;28;20578;-73
2022/12/02 02:49:42;;;;;;;39.80;23.77;;;3.80;99.90;;;;;;4985694;28;20190;-72
2022/12/02 02:52:08;;;;;;;38.63;23.92;;;3.80;99.90;;;;;;4990065;28;20205;-72
2022/12/02 02:54:33;;;;;;;41.60;23.67;;;3.60;99.90;;;;;;4972652;28;20193;-72
2022/12/02 02:56:59;;;;;;;38.28;25.02;;;3.70;99.90;;;;;;4972963;28;20199;-72
2022/12/02 02:59:25;;;;;;;36.75;22.60;;;3.70;99.90;;;;;;4973181;28;20171;-73
2022/12/02 03:01:51;;;;;;;43.42;25.95;;;3.70;99.90;;;;;;4973316;28;20202;-73
2022/12/02 03:04:20;;;;;;;39.70;23.65;;;3.60;99.90;;;;;;4972609;28;20210;-72
2022/12/02 03:06:49;;;;;;;41.50;25.05;;;3.50;99.90;;;;;;4986055;28;20198;-72
2022/12/02 03:09:18;;;;;;;39.67;24.48;;;3.60;99.90;;;;;;4991103;28;20549;-72
2022/12/02 03:11:45;;;;;;;38.65;24.35;;;3.60;99.90;;;;;;4992396;28;20166;-73
2022/12/02 03:14:12;;;;;;;39.35;23.95;;;3.60;99.90;;;;;;4973451;28;20274;-72
2022/12/02 03:16:38;;;;;;;42.40;24.58;;;3.70;99.90;;;;;;4972841;28;20214;-73
2022/12/02 03:19:04;;;;;;;40.33;23.95;;;3.70;99.90;;;;;;4972896;28;20994;-72
2022/12/02 03:21:32;;;;;;;34.13;22.67;;;3.70;99.90;;;;;;4972845;28;20170;-73
2022/12/02 03:23:59;;;;;;;39.10;25.20;;;3.70;99.90;;;;;;4987014;28;20269;-73
2022/12/02 03:26:27;;;;;;;40.83;25.77;;;3.70;99.90;;;;;;4990200;28;20244;-73
2022/12/02 03:28:54;;;;;;;41.28;25.17;;;3.70;99.90;;;;;;4992160;28;20258;-73
2022/12/02 03:31:21;;;;;;;40.95;23.75;;;3.70;99.90;;;;;;4990735;28;20169;-73
2022/12/02 03:33:48;;;;;;;40.35;23.25;;;3.70;99.90;;;;;;4972287;28;20702;-73
2022/12/02 03:36:14;;;;;;;43.10;25.65;;;3.70;99.90;;;;;;4972456;28;20202;-73
2022/12/02 03:38:40;;;;;;;44.05;25.90;;;3.70;99.90;;;;;;4973420;28;20434;-73
2022/12/02 03:41:06;;;;;;;44.08;27.73;;;3.80;99.90;;;;;;4995510;28;20178;-73
2022/12/02 03:43:33;;;;;;;44.90;26.88;;;3.70;99.90;;;;;;4990748;28;20232;-72
2022/12/02 03:45:59;;;;;;;45.05;25.95;;;3.70;99.90;;;;;;4991724;28;20217;-72
2022/12/02 03:48:25;;;;;;;39.75;23.63;;;3.70;99.90;;;;;;4992176;28;20170;-72
2022/12/02 03:50:52;;;;;;;43.30;26.20;;;3.70;99.90;;;;;;4972476;28;20273;-73
2022/12/02 03:53:20;;;;;;;40.30;23.85;;;3.70;99.90;;;;;;4972381;28;20186;-73
2022/12/02 03:55:46;;;;;;;42.08;25.25;;;3.70;99.90;;;;;;4990007;28;20321;-73
2022/12/02 03:58:11;;;;;;;47.58;27.60;;;3.80;99.90;;;;;;4990117;28;20198;-73
2022/12/02 04:00:37;;;;;;;42.33;25.20;;;3.80;99.90;;;;;;4994324;28;20193;-73
2022/12/02 04:03:03;;;;;;;46.30;26.02;;;3.70;99.90;;;;;;4995333;28;20178;-73
2022/12/02 04:05:29;;;;;;;45.38;27.10;;;3.70;99.90;;;;;;4991597;28;20239;-73
2022/12/02 04:07:54;;;;;;;44.47;25.40;;;3.70;99.90;;;;;;4976087;28;20179;-73
2022/12/02 04:10:20;;;;;;;46.05;26.55;;;3.80;99.90;;;;;;4976049;28;20167;-73
2022/12/02 04:12:46;;;;;;;44.55;27.10;;;3.70;99.90;;;;;;4975332;28;20179;-73
2022/12/02 04:15:11;;;;;;;48.30;27.48;;;3.80;99.90;;;;;;4990925;28;20604;-73
2022/12/02 04:17:37;;;;;;;45.45;25.60;;;3.70;99.90;;;;;;4995371;28;20190;-73
2022/12/02 04:20:04;;;;;;;43.25;26.58;;;3.70;99.90;;;;;;4995302;28;20174;-73
2022/12/02 04:22:30;;;;;;;45.13;28.73;;;3.70;99.90;;;;;;4983781;28;20190;-73
2022/12/02 04:24:59;;;;;;;42.38;25.35;;;3.60;99.90;;;;;;4971053;28;20224;-73
2022/12/02 04:27:25;;;;;;;39.33;24.38;;;3.60;99.90;;;;;;4993211;28;20284;-73
2022/12/02 04:29:51;;;;;;;46.60;26.73;;;3.60;99.90;;;;;;4994179;28;20166;-73
2022/12/02 04:32:17;;;;;;;47.97;26.88;;;3.70;99.90;;;;;;4978879;28;20241;-73
2022/12/02 04:34:43;;;;;;;47.53;27.42;;;3.70;99.90;;;;;;4975268;28;20201;-73
2022/12/02 04:37:08;;;;;;;45.92;25.90;;;3.70;99.90;;;;;;4975598;28;20662;-73
2022/12/02 04:39:34;;;;;;;45.42;25.20;;;3.70;99.90;;;;;;4986529;28;20527;-73
2022/12/02 04:42:00;;;;;;;47.85;26.80;;;3.70;99.90;;;;;;4997669;28;20193;-74
2022/12/02 04:44:25;;;;;;;43.38;25.58;;;3.70;99.90;;;;;;4993439;28;20212;-73
2022/12/02 04:46:51;;;;;;;46.55;27.42;;;3.70;99.90;;;;;;4990812;28;20223;-73
2022/12/02 04:49:17;;;;;;;44.85;26.00;;;3.80;99.90;;;;;;4994157;28;20181;-74
2022/12/02 04:51:42;;;;;;;49.22;26.27;;;3.80;99.90;;;;;;4994645;28;20660;-73
2022/12/02 04:54:08;;;;;;;45.80;26.02;;;3.80;99.90;;;;;;4994448;28;20174;-73
2022/12/02 04:56:33;;;;;;;45.47;27.60;;;3.70;99.90;;;;;;4986439;28;20202;-73
2022/12/02 04:58:59;;;;;;;49.15;27.73;;;3.70;99.90;;;;;;4975124;28;20179;-73
2022/12/02 05:01:25;;;;;;;49.22;28.60;;;3.70;99.90;;;;;;4973394;28;20270;-73
2022/12/02 05:03:51;;;;;;;48.42;28.73;;;3.60;99.90;;;;;;4990943;28;20185;-73
2022/12/02 05:06:16;;;;;;;47.67;27.10;;;3.60;99.90;;;;;;4985821;28;20247;-73
2022/12/02 05:08:42;;;;;;;46.35;25.88;;;3.60;99.90;;;;;;4982649;28;20638;-72
2022/12/02 05:11:07;;;;;;;45.92;27.27;;;3.60;99.90;;;;;;4994484;28;20199;-72
2022/12/02 05:13:33;;;;;;;45.58;26.33;;;3.70;99.90;;;;;;4986311;28;20193;-73
2022/12/02 05:15:59;;;;;;;47.60;27.23;;;3.60;99.90;;;;;;5002293;28;20715;-73
2022/12/02 05:18:24;;;;;;;47.72;27.77;;;3.60;99.90;;;;;;4992060;28;20276;-73
2022/12/02 05:20:50;;;;;;;48.75;27.05;;;3.50;99.90;;;;;;4993402;28;20185;-73
2022/12/02 05:23:15;;;;;;;49.30;27.17;;;3.60;99.90;;;;;;4978282;28;20224;-73
2022/12/02 05:25:41;;;;;;;47.60;27.05;;;3.70;99.90;;;;;;4990825;28;20712;-73
2022/12/02 05:28:07;;;;;;;46.33;27.75;;;3.70;99.90;;;;;;4994062;28;20665;-73
2022/12/02 05:30:32;;;;;;;53.90;29.27;;;3.70;99.90;;;;;;4992670;28;20184;-73
2022/12/02 05:32:58;;;;;;;46.55;27.17;;;3.60;99.90;;;;;;4974369;28;20198;-74
2022/12/02 05:35:23;;;;;;;45.63;27.42;;;3.70;99.90;;;;;;4972619;28;20253;-73
2022/12/02 05:37:49;;;;;;;47.65;27.48;;;3.70;99.90;;;;;;4973402;28;20229;-73
2022/12/02 05:40:15;;;;;;;47.33;27.58;;;3.70;99.90;;;;;;4990180;28;20190;-75
2022/12/02 05:42:41;;;;;;;51.80;28.35;;;3.70;99.90;;;;;;5000792;28;20228;-75
2022/12/02 05:45:18;;;;;;;49.05;27.42;;;3.70;99.90;;;;;;4992129;28;20213;-78
2022/12/02 05:47:51;;;;;;;51.25;27.85;;;3.70;99.90;;;;;;4995875;28;20532;-75
2022/12/02 05:50:17;;;;;;;50.13;27.42;;;3.70;99.90;;;;;;4991768;28;20431;-74
2022/12/02 05:52:43;;;;;;;48.28;28.27;;;3.60;99.90;;;;;;4993257;28;20186;-75
2022/12/02 05:55:15;;;;;;;48.30;27.60;;;3.60;99.90;;;;;;5003243;28;20170;-76
2022/12/02 05:57:41;;;;;;;49.15;28.33;;;3.70;99.90;;;;;;4974155;28;20257;-75
2022/12/02 06:00:21;;;;;;;47.65;27.15;;;3.70;99.90;;;;;;4974092;28;20708;-76
2022/12/02 06:02:47;;;;;;;49.50;26.92;;;3.70;99.90;;;;;;4990522;28;20185;-75
2022/12/02 06:05:41;;;;;;;45.95;27.65;;;3.80;99.90;;;;;;4990115;28;20577;-74
2022/12/02 06:08:21;;;;;;;49.03;27.88;;;3.80;99.90;;;;;;4993402;28;20182;-75
2022/12/02 06:10:53;;;;;;;50.15;28.00;;;3.80;99.90;;;;;;4993696;28;20411;-75
2022/12/02 06:13:26;;;;;;;50.80;29.52;;;3.80;99.90;;;;;;5000537;28;20182;-74
2022/12/02 06:15:53;;;;;;;53.63;30.20;;;3.80;99.90;;;;;;5003324;28;20260;-74
2022/12/02 06:18:26;;;;;;;48.33;27.55;;;3.90;99.90;;;;;;4999200;28;20182;-75
2022/12/02 06:20:58;;;;;;;56.35;30.45;;;3.80;99.90;;;;;;4990693;28;20278;-76
2022/12/02 06:23:26;;;;;;;56.50;32.38;;;3.90;99.90;;;;;;4995220;28;20211;-76
2022/12/02 06:25:53;;;;;;;56.40;30.58;;;3.90;99.90;;;;;;4991823;28;20204;-76
2022/12/02 06:28:37;;;;;;;56.20;30.42;;;4.00;99.90;;;;;;4991314;28;20174;-76
2022/12/02 06:31:44;;;;;;;47.88;29.60;;;4.00;99.90;;;;;;4990960;28;20174;-75
2022/12/02 06:34:22;;;;;;;54.13;29.98;;;4.00;99.90;;;;;;4972544;28;20622;-75
2022/12/02 06:36:47;;;;;;;52.58;29.70;;;4.20;99.90;;;;;;4997072;28;20204;-75
2022/12/02 06:39:21;;;;;;;50.42;29.17;;;4.20;99.90;;;;;;4987050;28;20190;-75
2022/12/02 06:41:49;;;;;;;50.40;29.40;;;4.20;99.90;;;;;;5003779;28;20173;-74
2022/12/02 06:47:31;;;;;;;49.92;29.05;;;4.30;99.90;;;;;;4985432;28;20224;-75
2022/12/02 06:50:17;;;;;;;49.70;28.55;;;4.20;99.90;;;;;;4991520;28;20189;-74
2022/12/02 06:52:45;;;;;;;49.40;28.25;;;4.40;99.90;;;;;;4987178;28;20649;-75
2022/12/02 06:55:32;;;;;;;53.67;27.65;;;4.40;99.90;;;;;;4986237;28;20649;-75
2022/12/02 06:58:16;;;;;;;49.88;28.17;;;4.40;99.90;;;;;;4985401;28;20181;-75
2022/12/02 07:00:42;;;;;;;48.10;27.42;;;4.50;99.90;;;;;;4987571;28;20200;-75
2022/12/02 07:03:30;;;;;;;49.80;28.52;;;4.50;99.90;;;;;;4997459;28;20533;-77
2022/12/02 07:06:17;;;;;;;51.60;29.15;;;4.40;99.90;;;;;;4984121;28;20214;-74
2022/12/02 07:08:42;;;;;;;52.15;28.15;;;4.40;99.90;;;;;;4971815;28;20213;-74
2022/12/02 07:14:37;;;;;;;53.50;30.27;;;4.30;99.90;;;;;;4992611;28;20181;-73
2022/12/02 07:17:23;;;;;;;51.33;28.35;;;4.20;99.90;;;;;;4986846;28;20409;-75
2022/12/02 07:20:10;;;;;;;46.15;25.83;;;4.20;99.90;;;;;;4985073;28;20252;-75
2022/12/02 07:22:45;;;;;;;52.97;29.75;;;4.20;99.90;;;;;;4990350;28;20182;-74
2022/12/02 07:25:14;;;;;;;49.13;28.65;;;4.20;99.90;;;;;;4988237;28;20253;-76
2022/12/02 07:27:42;;;;;;;50.13;27.55;;;4.10;99.90;;;;;;4974826;28;20547;-75
2022/12/02 07:30:29;;;;;;;48.45;28.23;;;4.10;99.90;;;;;;4973337;28;20171;-74
2022/12/02 07:32:55;;;;;;;46.88;26.73;;;4.10;99.90;;;;;;4976064;28;20687;-74
2022/12/02 07:35:21;;;;;;;53.03;30.10;;;4.10;99.90;;;;;;4977014;28;20190;-73
2022/12/02 07:37:47;;;;;;;50.97;28.98;;;4.10;99.90;;;;;;4991666;28;20194;-74
2022/12/02 07:40:15;;;;;;;50.00;28.42;;;4.10;99.90;;;;;;4986187;28;20201;-74
2022/12/02 07:42:42;;;;;;;56.97;30.75;;;4.10;99.90;;;;;;4995511;28;20664;-73
2022/12/02 07:45:09;;;;;;;53.92;29.33;;;4.10;99.90;;;;;;4990549;28;20312;-74
2022/12/02 07:47:35;;;;;;;53.13;29.50;;;4.10;99.90;;;;;;4995593;28;20170;-74
2022/12/02 07:50:00;;;;;;;50.97;28.70;;;4.20;99.90;;;;;;4996093;28;20197;-74
2022/12/02 07:52:26;;;;;;;48.17;29.38;;;4.10;99.90;;;;;;4995910;28;20170;-75
2022/12/02 07:54:53;;;;;;;57.95;30.35;;;4.10;99.90;;;;;;4996578;28;20245;-73
2022/12/02 07:57:19;;;;;;;48.95;28.70;;;4.20;99.90;;;;;;4996150;28;20688;-74
2022/12/02 07:59:45;;;;;;;55.17;29.33;;;4.10;99.90;;;;;;5001278;28;20268;-74
2022/12/02 08:02:10;;;;;;;52.35;29.75;;;4.00;99.90;;;;;;4986841;28;20189;-74
2022/12/02 08:04:36;;;;;;;55.67;28.95;;;3.90;99.90;;;;;;4986533;28;20206;-74
2022/12/02 08:07:01;;;;;;;56.03;30.60;;;3.90;99.90;;;;;;4994366;28;20207;-76
2022/12/02 08:09:27;;;;;;;52.55;28.42;;;3.80;99.90;;;;;;4992477;28;20174;-75
2022/12/02 08:11:53;;;;;;;50.10;28.35;;;3.80;99.90;;;;;;4998025;28;20545;-75
2022/12/02 08:14:18;;;;;;;56.28;29.98;;;3.80;99.90;;;;;;4982148;28;20183;-74
2022/12/02 08:16:44;;;;;;;52.28;28.80;;;3.80;99.90;;;;;;4994375;28;20198;-73
2022/12/02 08:19:09;;;;;;;56.55;30.95;;;3.70;99.90;;;;;;4987599;28;20274;-73
2022/12/02 08:21:36;;;;;;;50.95;29.17;;;3.70;99.90;;;;;;4991610;28;20594;-73
2022/12/02 08:24:02;;;;;;;50.35;29.45;;;3.70;99.90;;;;;;4995563;28;20517;-73
2022/12/02 08:26:28;;;;;;;51.53;29.30;;;3.70;99.90;;;;;;5000248;28;20248;-73
2022/12/02 08:28:54;;;;;;;50.88;29.98;;;3.70;99.90;;;;;;4987711;28;20217;-73
2022/12/02 08:31:20;;;;;;;47.25;27.95;;;3.70;99.90;;;;;;4994848;28;20185;-73
2022/12/02 08:33:45;;;;;;;53.25;30.23;;;3.70;99.90;;;;;;5012035;28;20180;-73
2022/12/02 08:36:11;;;;;;;59.80;30.52;;;3.70;99.90;;;;;;4995250;28;20206;-73
2022/12/02 08:38:37;;;;;;;50.97;27.83;;;3.70;99.90;;;;;;4993390;28;20186;-73
2022/12/02 08:41:03;;;;;;;53.35;27.90;;;3.70;99.90;;;;;;4988043;28;20541;-74
2022/12/02 08:43:28;;;;;;;49.88;28.70;;;3.70;99.90;;;;;;4991317;28;20208;-74
2022/12/02 08:45:54;;;;;;;52.42;29.35;;;3.70;99.90;;;;;;5002492;28;20205;-73
2022/12/02 08:48:20;;;;;;;56.60;30.63;;;3.70;99.90;;;;;;4988658;28;20186;-73
2022/12/02 08:50:46;;;;;;;52.28;28.50;;;3.70;99.90;;;;;;4987464;28;20178;-74
2022/12/02 08:53:11;;;;;;;55.20;29.70;;;3.70;99.90;;;;;;4991354;28;20270;-73
2022/12/02 08:55:37;;;;;;;57.65;30.20;;;3.80;99.90;;;;;;4987525;28;20206;-73
2022/12/02 08:58:02;;;;;;;55.28;30.50;;;3.80;99.90;;;;;;4983674;28;20746;-74
2022/12/02 09:00:28;;;;;;;56.08;30.20;;;3.80;99.90;;;;;;4999066;28;20209;-73
2022/12/02 09:02:54;;;;;;;49.38;30.23;;;3.80;99.90;;;;;;4998200;28;20181;-73
2022/12/02 09:05:19;;;;;;;58.35;30.58;;;3.80;99.90;;;;;;5000905;28;20213;-73
2022/12/02 09:07:45;;;;;;;56.42;29.48;;;3.80;99.90;;;;;;4995824;28;20181;-74
2022/12/02 09:10:12;;;;;;;57.25;29.25;;;3.80;99.90;;;;;;4992264;28;20181;-73
2022/12/02 09:12:37;;;;;;;58.50;30.95;;;3.80;99.90;;;;;;5001843;28;20189;-75
2022/12/02 09:15:04;;;;;;;53.22;30.25;;;3.80;99.90;;;;;;4997092;28;20174;-74
2022/12/02 09:17:29;;;;;;;58.13;31.45;;;3.70;99.90;;;;;;4994041;28;20202;-73
2022/12/02 09:19:55;;;;;;;57.28;30.60;;;3.70;99.90;;;;;;4982674;28;20194;-74
2022/12/02 09:22:21;;;;;;;54.33;30.55;;;3.80;99.90;;;;;;4991588;28;20633;-73
2022/12/02 09:24:46;;;;;;;61.13;32.83;;;3.80;99.90;;;;;;5002439;28;20280;-73
2022/12/02 09:27:12;;;;;;;58.40;31.35;;;3.70;99.90;;;;;;4996393;28;20217;-74
2022/12/02 09:29:37;;;;;;;56.50;31.42;;;3.60;99.90;;;;;;5000734;28;20233;-74
2022/12/02 09:32:03;;;;;;;60.40;31.42;;;3.70;99.90;;;;;;5001693;28;20180;-74
2022/12/02 09:34:29;;;;;;;55.20;29.10;;;3.70;99.90;;;;;;4999769;28;20174;-74
2022/12/02 09:36:54;;;;;;;58.25;31.40;;;3.70;99.90;;;;;;5001705;28;20193;-74
2022/12/02 09:39:20;;;;;;;54.47;29.75;;;3.70;99.90;;;;;;5013399;28;20180;-74
2022/12/02 09:41:45;;;;;;;65.35;32.92;;;3.70;99.90;;;;;;5012978;28;20177;-74
2022/12/02 09:44:11;;;;;;;57.53;30.67;;;3.60;99.90;;;;;;4985753;28;20193;-74
2022/12/02 09:46:37;;;;;;;57.17;30.52;;;3.60;99.90;;;;;;4991838;28;20209;-74
2022/12/02 09:49:03;;;;;;;63.67;33.78;;;3.60;99.90;;;;;;4987711;28;20170;-75
2022/12/02 09:51:30;;;;;;;57.70;30.85;;;3.50;99.90;;;;;;4996187;28;20252;-74
2022/12/02 09:53:56;;;;;;;58.38;30.77;;;3.50;99.90;;;;;;4992902;28;20170;-74
2022/12/02 09:56:22;;;;;;;56.35;30.05;;;3.70;99.90;;;;;;4977488;28;20206;-74
2022/12/02 09:58:51;;;;;;;55.85;29.40;;;3.80;99.90;;;;;;4995760;28;20540;-73
2022/12/02 10:01:17;;;;;;;55.22;31.92;;;3.90;99.90;;;;;;4993905;28;20181;-73
2022/12/02 10:03:44;;;;;;;56.72;31.05;;;3.70;99.90;;;;;;4998674;28;20235;-74
2022/12/02 10:06:19;;;;;;;51.40;29.17;;;3.60;99.90;;;;;;4993164;28;20241;-75
2022/12/02 10:08:44;;;;;;;56.65;29.75;;;3.60;99.90;;;;;;4998954;28;20683;-73
2022/12/02 10:11:21;;;;;;;53.90;30.35;;;3.80;99.90;;;;;;5003742;28;20190;-73
2022/12/02 10:13:47;;;;;;;59.45;29.90;;;3.70;99.90;;;;;;5002025;28;20182;-73
2022/12/02 10:16:14;;;;;;;60.13;32.80;;;3.70;99.90;;;;;;4993130;28;20549;-72
2022/12/02 10:18:40;;;;;;;50.92;27.85;;;3.50;99.90;;;;;;5000766;28;20204;-73
2022/12/02 10:21:06;;;;;;;52.72;29.50;;;3.60;99.90;;;;;;4996510;28;20558;-73
2022/12/02 10:23:31;;;;;;;57.70;30.45;;;3.50;99.90;;;;;;4997143;28;20270;-73
2022/12/02 10:26:17;;;;;;;56.13;29.33;;;3.40;99.90;;;;;;5000927;28;20214;-73
2022/12/02 10:29:08;;;;;;;57.53;28.38;;;3.40;99.90;;;;;;5008813;28;20588;-73
2022/12/02 10:31:34;;;;;;;55.20;28.17;;;3.50;99.90;;;;;;4973592;28;20741;-73
2022/12/02 10:34:05;;;;;;;57.08;31.00;;;3.50;99.90;;;;;;4976158;28;20233;-74
2022/12/02 10:36:37;;;;;;;59.30;32.00;;;3.60;99.90;;;;;;5004994;28;20251;-73
2022/12/02 10:39:22;;;;;;;59.70;31.98;;;3.70;99.90;;;;;;5000213;28;20219;-75
2022/12/02 10:42:03;;;;;;;54.70;29.33;;;3.70;99.90;;;;;;4995220;28;20264;-75
2022/12/02 10:44:31;;;;;;;50.90;29.90;;;3.70;99.90;;;;;;4985859;28;20260;-76
2022/12/02 10:47:20;;;;;;;53.38;29.88;;;3.60;99.90;;;;;;5002081;28;20261;-77
2022/12/02 10:49:57;;;;;;;50.72;27.55;;;3.70;99.90;;;;;;4997645;28;20174;-76
2022/12/02 10:52:47;;;;;;;50.85;29.77;;;3.70;99.90;;;;;;4999869;28;20609;-76
2022/12/02 10:55:13;;;;;;;56.63;29.42;;;3.60;99.90;;;;;;4997637;28;20193;-77
2022/12/02 10:57:41;;;;;;;56.00;28.02;;;3.60;99.90;;;;;;4995290;28;20178;-76
2022/12/02 11:00:14;;;;;;;49.05;27.77;;;3.70;99.90;;;;;;5000178;28;20590;-76
2022/12/02 11:03:02;;;;;;;54.22;30.35;;;3.70;99.90;;;;;;4996894;28;20174;-74
2022/12/02 11:05:31;;;;;;;53.05;31.20;;;3.70;99.90;;;;;;4994301;28;20217;-74
2022/12/02 11:08:00;;;;;;;54.47;31.23;;;3.60;99.90;;;;;;4992992;28;20181;-74
2022/12/02 11:10:38;;;;;;;52.92;29.42;;;3.60;99.90;;;;;;5011398;28;20177;-74
2022/12/02 11:13:25;;;;;;;57.67;29.88;;;3.70;99.90;;;;;;4999024;28;20729;-75
2022/12/02 11:15:52;;;;;;;55.50;30.27;;;3.70;99.90;;;;;;4985338;28;20224;-75
2022/12/02 11:18:23;;;;;;;51.50;28.13;;;3.80;99.90;;;;;;4976790;28;20194;-74
2022/12/02 11:21:27;;;;;;;47.63;28.05;;;3.80;99.90;;;;;;4992334;28;20213;-73
2022/12/02 11:24:22;;;;;;;48.83;26.17;;;3.90;99.90;;;;;;4965750;28;20193;-73
2022/12/02 11:26:59;;;;;;;50.53;26.15;;;3.90;99.90;;;;;;4989141;28;20216;-73
2022/12/02 11:29:25;;;;;;;48.17;26.00;;;4.10;99.90;;;;;;5002016;28;20235;-73
2022/12/02 11:32:02;;;;;;;48.90;28.73;;;4.00;99.90;;;;;;4992264;28;20633;-74
2022/12/02 11:34:50;;;;;;;50.05;28.80;;;4.00;99.90;;;;;;4992004;28;20178;-73
2022/12/02 11:37:34;;;;;;;45.85;26.83;;;3.80;99.90;;;;;;4986293;28;20209;-73
2022/12/02 11:40:09;;;;;;;47.45;26.40;;;3.70;99.90;;;;;;4972553;28;20170;-73
2022/12/02 11:42:35;;;;;;;45.97;25.67;;;3.50;99.90;;;;;;4972471;28;20189;-73
2022/12/02 11:45:16;;;;;;;47.28;25.40;;;3.60;99.90;;;;;;4972636;28;20285;-73
2022/12/02 11:47:57;;;;;;;39.97;24.38;;;3.70;99.90;;;;;;4975905;28;20532;-73
2022/12/02 11:50:42;;;;;;;37.90;22.30;;;3.70;99.90;;;;;;4983314;28;20215;-75
2022/12/02 11:53:20;;;;;;;39.65;23.60;;;3.70;99.90;;;;;;4985974;28;20194;-76
2022/12/02 11:55:52;;;;;;;36.25;24.10;;;3.80;99.90;;;;;;4991465;28;20241;-75
2022/12/02 11:58:37;;;;;;;39.60;23.10;;;3.70;99.90;;;;;;4998806;28;20174;-76
2022/12/02 12:01:03;;;;;;;40.28;22.80;;;3.80;99.90;;;;;;4986960;28;20223;-75
2022/12/02 12:03:29;;;;;;;40.15;24.40;;;3.80;99.90;;;;;;4988714;28;20673;-76
2022/12/02 12:06:14;;;;;;;38.25;22.45;;;3.60;99.90;;;;;;4991105;28;20252;-76
2022/12/02 12:08:43;;;;;;;38.92;22.48;;;3.80;99.90;;;;;;4972684;28;20258;-75
2022/12/02 12:11:21;;;;;;;40.63;23.60;;;3.80;99.90;;;;;;4983237;28;20179;-76
2022/12/02 12:14:12;;;;;;;42.65;23.70;;;3.70;99.90;;;;;;4972314;28;20171;-75
2022/12/02 12:16:41;;;;;;;41.80;23.63;;;3.60;99.90;;;;;;4974245;28;20593;-75
2022/12/02 12:19:12;;;;;;;40.65;23.15;;;3.70;99.90;;;;;;4991625;28;20173;-75
2022/12/02 12:21:46;;;;;;;40.38;25.42;;;3.70;99.90;;;;;;4984205;28;20186;-75
2022/12/02 12:24:22;;;;;;;37.15;22.33;;;3.80;99.90;;;;;;5002971;28;20180;-75
2022/12/02 12:27:03;;;;;;;38.60;22.88;;;3.70;99.90;;;;;;4989931;28;20204;-74
2022/12/02 12:29:31;;;;;;;33.10;22.23;;;3.70;99.90;;;;;;4993815;28;20181;-74
2022/12/02 12:31:57;;;;;;;35.08;21.45;;;3.70;99.90;;;;;;5000513;28;20242;-74
2022/12/02 12:34:24;;;;;;;36.72;24.08;;;3.60;99.90;;;;;;4999571;28;20700;-74
2022/12/02 12:36:50;;;;;;;34.58;20.90;;;3.50;99.90;;;;;;5003132;28;20203;-73
2022/12/02 12:39:16;;;;;;;37.00;22.77;;;3.40;99.90;;;;;;5003848;28;20304;-73
2022/12/02 12:41:42;;;;;;;39.45;23.75;;;3.40;99.90;;;;;;4994845;28;20189;-73
2022/12/02 12:44:08;;;;;;;34.45;21.98;;;3.30;99.90;;;;;;4995721;28;20194;-73
2022/12/02 12:46:34;;;;;;;35.50;21.20;;;3.40;99.90;;;;;;5004465;28;20220;-74
2022/12/02 12:48:59;;;;;;;33.58;21.00;;;3.30;99.90;;;;;;4998945;28;20225;-73
2022/12/02 12:51:25;;;;;;;36.53;22.35;;;3.40;99.90;;;;;;4995312;28;20182;-74
2022/12/02 12:53:51;;;;;;;34.70;20.52;;;3.30;99.90;;;;;;4995956;28;20182;-74